Time;durP1;ratioP1;P1;durP2;ratioP2;P2;SDS_P1;SDS_P2;PMS_P1;PMS_P2;Temp;Humidity;BMP_temperature;BMP_pressure;BME280_temperature;BME280_humidity;BME280_pressure;Samples;Min_cycle;Max_cycle;Signal;HPM_P1;HPM_P2
2022/12/02 00:01:21;;;;;;;98.43;34.75;;;8.50;99.90;;;;;;6217584;23;20028;-74
2022/12/02 00:03:48;;;;;;;97.70;34.22;;;6.50;99.90;;;;;;6190196;23;20432;-74
2022/12/02 00:06:30;;;;;;;95.10;33.35;;;6.50;99.90;;;;;;6191513;23;20452;-74
2022/12/02 00:09:15;;;;;;;93.80;32.70;;;6.50;99.90;;;;;;6167427;23;20012;-75
2022/12/02 00:11:44;;;;;;;89.70;32.72;;;6.50;99.90;;;;;;6201773;23;20008;-75
2022/12/02 00:14:21;;;;;;;87.80;32.38;;;8.10;99.90;;;;;;6217583;23;20023;-74
2022/12/02 00:16:50;;;;;;;81.25;30.42;;;8.20;99.90;;;;;;6189881;23;20024;-74
2022/12/02 00:19:17;;;;;;;83.50;31.83;;;7.30;99.90;;;;;;6191644;23;20016;-75
2022/12/02 00:21:45;;;;;;;79.72;30.13;;;6.50;99.90;;;;;;6167216;23;20028;-74
2022/12/02 00:24:13;;;;;;;75.75;29.77;;;8.60;99.90;;;;;;6190077;23;20024;-74
2022/12/02 00:26:41;;;;;;;75.95;29.73;;;7.10;99.90;;;;;;6167078;23;20028;-74
2022/12/02 00:29:10;;;;;;;75.85;29.05;;;6.50;99.90;;;;;;6191558;23;20012;-75
2022/12/02 00:31:37;;;;;;;81.43;30.52;;;6.40;99.90;;;;;;6216147;23;20013;-74
2022/12/02 00:34:05;;;;;;;87.15;31.70;;;6.80;99.90;;;;;;6191876;23;20008;-75
2022/12/02 00:36:33;;;;;;;82.00;31.23;;;6.40;99.90;;;;;;6226060;23;20009;-74
2022/12/02 00:39:00;;;;;;;89.30;33.03;;;8.50;99.90;;;;;;6191633;23;20013;-74
2022/12/02 00:41:28;;;;;;;93.65;32.67;;;7.20;99.90;;;;;;6166453;23;20013;-74
2022/12/02 00:46:41;;;;;;;100.55;33.08;;;6.70;99.90;;;;;;6201223;23;20023;-74
2022/12/02 00:49:15;;;;;;;103.53;33.83;;;6.90;99.90;;;;;;6217494;23;20012;-74
2022/12/02 00:51:44;;;;;;;103.53;34.08;;;7.10;99.90;;;;;;6201350;23;20020;-74
2022/12/02 00:54:12;;;;;;;107.18;34.50;;;6.40;99.90;;;;;;6191026;23;20017;-74
2022/12/02 00:56:40;;;;;;;;;;;6.40;99.90;;;;;;6141765;23;20429;-74
2022/12/02 00:59:08;;;;;;;101.10;32.30;;;6.40;99.90;;;;;;6191456;23;19915;-74
2022/12/02 01:01:35;;;;;;;93.32;32.47;;;8.00;99.90;;;;;;6217587;23;20016;-74
2022/12/02 01:04:04;;;;;;;98.82;35.10;;;6.30;99.90;;;;;;6166137;23;20031;-74
2022/12/02 01:06:32;;;;;;;110.88;34.65;;;6.30;99.90;;;;;;6203119;23;20317;-74
2022/12/02 01:08:59;;;;;;;115.93;35.55;;;6.40;99.90;;;;;;6143985;23;20020;-75
2022/12/02 01:11:27;;;;;;;114.35;36.03;;;6.30;99.90;;;;;;6191994;23;20020;-74
2022/12/02 01:13:55;;;;;;;115.47;34.83;;;6.20;99.90;;;;;;6168735;23;20013;-75
2022/12/02 01:16:22;;;;;;;124.03;36.65;;;6.20;99.90;;;;;;6201961;23;20013;-75
2022/12/02 01:18:50;;;;;;;117.63;35.30;;;6.20;99.90;;;;;;6219393;23;20024;-74
2022/12/02 01:21:17;;;;;;;122.05;39.88;;;7.30;99.90;;;;;;6193131;23;20024;-74
2022/12/02 01:23:46;;;;;;;113.93;35.42;;;6.20;99.90;;;;;;6191972;23;20028;-74
2022/12/02 01:26:13;;;;;;;122.97;37.38;;;6.40;99.90;;;;;;6203915;23;20291;-74
2022/12/02 01:28:41;;;;;;;144.43;41.08;;;6.20;99.90;;;;;;6193349;23;20024;-74
2022/12/02 01:31:08;;;;;;;138.43;39.20;;;7.70;99.90;;;;;;6191347;23;20020;-74
2022/12/02 01:33:36;;;;;;;136.23;37.67;;;8.30;99.90;;;;;;6167839;23;20016;-75
2022/12/02 01:36:05;;;;;;;139.82;40.28;;;6.20;99.90;;;;;;6201912;23;20016;-74
2022/12/02 01:38:33;;;;;;;135.15;37.65;;;6.20;99.90;;;;;;6192987;23;20435;-74
2022/12/02 01:41:01;;;;;;;129.40;36.90;;;8.10;99.90;;;;;;6193140;23;20321;-74
2022/12/02 01:43:28;;;;;;;118.65;35.03;;;6.70;99.90;;;;;;6191456;23;20324;-75
2022/12/02 01:45:56;;;;;;;116.63;35.17;;;6.20;99.90;;;;;;6229003;23;20417;-74
2022/12/02 01:48:27;;;;;;;132.55;38.42;;;7.00;99.90;;;;;;6218895;23;20016;-74
2022/12/02 01:50:56;;;;;;;133.15;34.78;;;8.20;99.90;;;;;;6166518;23;20032;-74
2022/12/02 01:53:23;;;;;;;;;;;7.80;99.90;;;;;;6193390;23;20309;-74
2022/12/02 01:55:51;;;;;;;102.43;31.10;;;6.20;99.90;;;;;;6221057;23;19920;-74
2022/12/02 01:58:23;;;;;;;100.25;30.67;;;8.00;99.90;;;;;;6191235;23;20020;-74
2022/12/02 02:00:53;;;;;;;82.13;28.17;;;8.00;99.90;;;;;;6202653;23;20028;-74
2022/12/02 02:03:21;;;;;;;92.18;29.27;;;6.90;99.90;;;;;;6191261;23;20017;-75
2022/12/02 02:05:49;;;;;;;80.07;27.50;;;6.70;99.90;;;;;;6192888;23;20422;-74
2022/12/02 02:08:17;;;;;;;90.63;28.55;;;6.10;99.90;;;;;;6192770;23;20434;-74
2022/12/02 02:10:45;;;;;;;;;;;6.30;99.90;;;;;;6166820;23;20016;-75
2022/12/02 02:13:16;;;;;;;93.18;28.27;;;6.00;99.90;;;;;;6192662;23;19923;-75
2022/12/02 02:15:44;;;;;;;89.93;29.02;;;8.00;99.90;;;;;;6168217;23;20021;-75
2022/12/02 02:18:14;;;;;;;88.95;29.55;;;6.00;99.90;;;;;;6166222;23;20024;-75
2022/12/02 02:20:41;;;;;;;95.60;29.52;;;6.00;99.90;;;;;;6192765;23;20020;-74
2022/12/02 02:23:28;;;;;;;85.75;27.58;;;6.00;99.90;;;;;;6191238;23;20322;-74
2022/12/02 02:25:59;;;;;;;85.80;28.20;;;7.10;99.90;;;;;;6167426;23;20020;-74
2022/12/02 02:28:34;;;;;;;76.03;25.17;;;7.10;99.90;;;;;;6204656;23;20013;-75
2022/12/02 02:31:03;;;;;;;77.03;25.83;;;6.00;99.90;;;;;;6191098;23;20016;-74
2022/12/02 02:33:39;;;;;;;75.57;24.63;;;5.90;99.90;;;;;;6167814;23;20318;-75
2022/12/02 02:36:08;;;;;;;81.10;26.70;;;5.90;99.90;;;;;;6191122;23;20022;-75
2022/12/02 02:38:36;;;;;;;87.60;27.65;;;5.90;99.90;;;;;;6168025;23;20016;-74
2022/12/02 02:41:05;;;;;;;84.68;26.50;;;5.80;99.90;;;;;;6192895;23;20322;-75
2022/12/02 02:43:34;;;;;;;;;;;5.80;99.90;;;;;;6142098;23;20017;-74
2022/12/02 02:46:02;;;;;;;86.97;27.02;;;5.90;99.90;;;;;;6202307;23;19968;-75
2022/12/02 02:48:37;;;;;;;83.55;27.48;;;7.30;99.90;;;;;;6202248;23;20009;-74
2022/12/02 02:51:07;;;;;;;88.80;28.63;;;5.80;99.90;;;;;;6190799;23;20016;-74
2022/12/02 02:53:35;;;;;;;84.53;28.25;;;6.60;99.90;;;;;;6192203;23;20008;-75
2022/12/02 02:56:04;;;;;;;97.45;30.38;;;6.60;99.90;;;;;;6115813;23;20083;-75
2022/12/02 02:58:34;;;;;;;100.57;30.00;;;5.90;99.90;;;;;;6138299;23;20017;-74
2022/12/02 03:01:14;;;;;;;;;;;5.90;99.90;;;;;;6163018;23;20017;-75
2022/12/02 03:03:52;;;;;;;100.50;29.23;;;5.90;99.90;;;;;;6136752;23;20332;-74
2022/12/02 03:06:23;;;;;;;98.50;30.42;;;7.50;99.90;;;;;;6138160;23;20434;-74
2022/12/02 03:08:52;;;;;;;99.72;28.02;;;7.20;99.90;;;;;;6161363;23;20021;-74
2022/12/02 03:11:20;;;;;;;91.32;27.17;;;6.00;99.90;;;;;;6160741;23;20013;-75
2022/12/02 03:13:49;;;;;;;85.15;28.17;;;5.90;99.90;;;;;;6162256;23;20343;-75
2022/12/02 03:16:20;;;;;;;89.93;28.15;;;5.90;99.90;;;;;;6171057;23;20368;-75
2022/12/02 03:18:50;;;;;;;87.60;27.80;;;6.40;99.90;;;;;;6172666;23;20017;-75
2022/12/02 03:21:19;;;;;;;101.05;29.20;;;7.40;99.90;;;;;;6188643;23;20024;-74
2022/12/02 03:23:51;;;;;;;93.38;29.25;;;8.00;99.90;;;;;;6160633;23;20013;-74
2022/12/02 03:26:18;;;;;;;91.40;29.23;;;5.90;99.90;;;;;;6171241;23;20032;-74
2022/12/02 03:28:47;;;;;;;94.53;30.05;;;6.00;99.90;;;;;;6162932;23;20331;-74
2022/12/02 03:31:15;;;;;;;95.15;28.58;;;6.10;99.90;;;;;;6160754;23;20013;-75
2022/12/02 03:33:43;;;;;;;100.18;29.67;;;8.30;99.90;;;;;;6162369;23;20440;-75
2022/12/02 03:36:11;;;;;;;100.57;29.75;;;6.10;99.90;;;;;;6196626;23;20043;-74
2022/12/02 03:38:39;;;;;;;91.00;28.27;;;5.90;99.90;;;;;;6162290;23;20024;-74
2022/12/02 03:41:07;;;;;;;98.28;27.17;;;5.90;99.90;;;;;;6187883;23;20021;-74
2022/12/02 03:43:35;;;;;;;84.70;27.30;;;7.60;99.90;;;;;;6186493;23;20020;-74
2022/12/02 03:46:05;;;;;;;102.15;28.35;;;7.00;99.90;;;;;;6172226;23;20024;-75
2022/12/02 03:48:37;;;;;;;95.70;29.20;;;5.90;99.90;;;;;;6162397;23;20039;-74
2022/12/02 03:51:06;;;;;;;101.93;28.92;;;5.90;99.90;;;;;;6196423;23;20016;-75
2022/12/02 03:53:35;;;;;;;97.30;29.42;;;5.90;99.90;;;;;;6137107;23;20013;-74
2022/12/02 03:56:05;;;;;;;99.88;29.17;;;5.90;99.90;;;;;;6187519;23;20020;-74
2022/12/02 03:58:35;;;;;;;99.43;29.60;;;5.90;99.90;;;;;;6217616;23;20333;-74
2022/12/02 04:01:04;;;;;;;106.90;28.48;;;6.20;99.90;;;;;;6227857;23;20021;-75
2022/12/02 04:03:32;;;;;;;105.85;28.20;;;5.90;99.90;;;;;;6216696;23;20017;-74
2022/12/02 04:05:59;;;;;;;93.18;27.63;;;6.50;99.90;;;;;;6227588;23;20015;-74
2022/12/02 04:08:27;;;;;;;95.75;28.20;;;5.90;99.90;;;;;;6167236;23;20028;-74
2022/12/02 04:10:55;;;;;;;;;;;7.60;99.90;;;;;;6216816;23;20019;-74
2022/12/02 04:13:22;;;;;;;87.60;25.13;;;5.90;99.90;;;;;;6191786;23;19926;-74
2022/12/02 04:15:50;;;;;;;90.60;26.10;;;7.90;99.90;;;;;;6191651;23;20440;-74
2022/12/02 04:18:18;;;;;;;102.63;27.67;;;5.90;99.90;;;;;;6216269;23;20012;-74
2022/12/02 04:20:45;;;;;;;92.07;25.23;;;5.90;99.90;;;;;;6166876;23;20008;-74
2022/12/02 04:23:13;;;;;;;91.65;25.73;;;6.80;99.90;;;;;;6216487;23;20025;-74
2022/12/02 04:25:41;;;;;;;91.13;26.00;;;5.80;99.90;;;;;;6227820;23;20013;-74
2022/12/02 04:28:08;;;;;;;98.13;27.15;;;7.50;99.90;;;;;;6191311;23;20013;-74
2022/12/02 04:30:36;;;;;;;90.57;25.58;;;5.80;99.90;;;;;;6216353;23;20013;-74
2022/12/02 04:33:04;;;;;;;84.70;25.13;;;5.80;99.90;;;;;;6166494;23;20069;-74
2022/12/02 04:35:32;;;;;;;82.45;25.13;;;5.80;99.90;;;;;;6167250;23;20017;-74
2022/12/02 04:37:59;;;;;;;87.30;24.83;;;5.80;99.90;;;;;;6189854;23;20031;-74
2022/12/02 04:40:27;;;;;;;85.72;25.50;;;5.80;99.90;;;;;;6191674;23;20016;-74
2022/12/02 04:42:55;;;;;;;84.78;24.42;;;5.80;99.90;;;;;;6190171;23;20016;-75
2022/12/02 04:45:22;;;;;;;84.90;24.80;;;5.70;99.90;;;;;;6141971;23;20036;-75
2022/12/02 04:47:50;;;;;;;82.82;24.48;;;6.00;99.90;;;;;;6217437;23;20024;-74
2022/12/02 04:50:17;;;;;;;85.50;24.25;;;5.70;99.90;;;;;;6190078;23;20009;-74
2022/12/02 04:52:45;;;;;;;80.25;23.88;;;5.70;99.90;;;;;;6166599;23;20317;-74
2022/12/02 04:55:13;;;;;;;74.18;24.15;;;5.70;99.90;;;;;;6176272;23;20433;-74
2022/12/02 04:57:40;;;;;;;79.93;24.00;;;5.70;99.90;;;;;;6185914;23;20013;-74
2022/12/02 05:00:09;;;;;;;83.22;24.45;;;6.00;99.90;;;;;;6187320;23;20017;-74
2022/12/02 05:02:37;;;;;;;75.07;23.65;;;5.70;99.90;;;;;;6160292;23;20048;-74
2022/12/02 05:05:05;;;;;;;70.88;22.40;;;5.70;99.90;;;;;;6187380;23;20033;-74
2022/12/02 05:07:33;;;;;;;80.90;24.42;;;5.70;99.90;;;;;;6161581;23;20021;-74
2022/12/02 05:10:00;;;;;;;78.28;23.08;;;7.70;99.90;;;;;;6160292;23;20017;-74
2022/12/02 05:12:28;;;;;;;71.20;23.27;;;5.70;99.90;;;;;;6161494;23;20438;-74
2022/12/02 05:14:55;;;;;;;67.72;22.83;;;5.70;99.90;;;;;;6161311;23;20017;-74
2022/12/02 05:17:23;;;;;;;71.43;23.27;;;6.30;99.90;;;;;;6160356;23;20032;-74
2022/12/02 05:19:50;;;;;;;67.97;21.90;;;5.70;99.90;;;;;;6161741;23;20028;-75
2022/12/02 05:22:18;;;;;;;59.90;20.27;;;5.70;99.90;;;;;;6136653;23;20028;-74
2022/12/02 05:24:47;;;;;;;57.45;20.40;;;7.30;99.90;;;;;;6185969;23;20033;-74
2022/12/02 05:27:15;;;;;;;61.90;21.73;;;5.60;99.90;;;;;;6112596;23;20017;-74
2022/12/02 05:29:43;;;;;;;60.83;22.05;;;5.60;99.90;;;;;;6160540;23;20017;-74
2022/12/02 05:32:10;;;;;;;55.88;21.90;;;5.80;99.90;;;;;;6187282;23;20011;-74
2022/12/02 05:34:38;;;;;;;59.17;20.67;;;7.20;99.90;;;;;;6187141;23;20013;-74
2022/12/02 05:37:05;;;;;;;51.38;20.40;;;6.70;99.90;;;;;;6195825;23;20414;-74
2022/12/02 05:39:33;;;;;;;51.05;21.40;;;6.00;99.90;;;;;;6161351;23;20024;-75
2022/12/02 05:42:05;;;;;;;50.55;20.05;;;5.70;99.90;;;;;;6162391;23;20024;-74
2022/12/02 05:44:33;;;;;;;55.25;20.83;;;5.70;99.90;;;;;;6170045;23;20016;-74
2022/12/02 05:47:12;;;;;;;50.90;20.38;;;6.10;99.90;;;;;;6136969;23;20322;-74
2022/12/02 05:49:42;;;;;;;52.38;21.23;;;5.70;99.90;;;;;;6170575;23;20020;-74
2022/12/02 05:52:25;;;;;;;57.42;20.00;;;6.00;99.90;;;;;;6162966;23;20009;-74
2022/12/02 05:55:00;;;;;;;48.47;20.17;;;5.70;99.90;;;;;;6114697;23;20021;-75
2022/12/02 05:57:30;;;;;;;48.05;20.05;;;5.60;99.90;;;;;;6147140;23;20326;-74
2022/12/02 06:00:21;;;;;;;50.88;20.95;;;7.00;99.90;;;;;;6188778;23;20017;-74
2022/12/02 06:02:52;;;;;;;56.42;21.58;;;5.60;99.90;;;;;;6113607;23;20036;-74
2022/12/02 06:05:23;;;;;;;55.50;21.35;;;5.60;99.90;;;;;;6199325;23;20013;-74
2022/12/02 06:08:00;;;;;;;55.00;21.50;;;4.90;99.90;;;;;;6163047;23;20017;-74
2022/12/02 06:10:30;;;;;;;58.90;23.38;;;5.60;99.90;;;;;;6171594;23;20012;-74
2022/12/02 06:13:09;;;;;;;55.25;21.92;;;7.10;99.90;;;;;;6172973;23;20358;-74
2022/12/02 06:15:37;;;;;;;60.13;22.02;;;5.50;99.90;;;;;;6173046;23;20044;-74
2022/12/02 06:18:19;;;;;;;65.72;23.50;;;5.40;99.90;;;;;;6187209;23;20017;-74
2022/12/02 06:20:55;;;;;;;54.10;23.45;;;5.40;99.90;;;;;;6113953;23;20296;-74
2022/12/02 06:23:26;;;;;;;52.50;23.10;;;5.40;99.90;;;;;;6171073;23;20013;-74
2022/12/02 06:25:54;;;;;;;58.03;23.27;;;5.40;99.90;;;;;;6172667;23;20319;-74
2022/12/02 06:28:26;;;;;;;58.65;22.50;;;7.50;99.90;;;;;;6162911;23;20036;-74
2022/12/02 06:31:00;;;;;;;55.28;23.48;;;5.40;99.90;;;;;;6112752;23;20039;-74
2022/12/02 06:33:33;;;;;;;56.05;22.60;;;5.40;99.90;;;;;;6138105;23;20017;-74
2022/12/02 06:36:10;;;;;;;54.75;22.30;;;7.70;99.90;;;;;;6196900;23;20314;-74
2022/12/02 06:38:50;;;;;;;49.20;21.98;;;5.40;99.90;;;;;;6198558;23;20021;-74
2022/12/02 06:41:27;;;;;;;55.30;22.50;;;5.40;99.90;;;;;;6198599;23;20013;-74
2022/12/02 06:46:46;;;;;;;48.70;21.33;;;5.40;99.90;;;;;;6198554;23;20024;-74
2022/12/02 06:49:22;;;;;;;52.45;21.27;;;5.40;99.90;;;;;;6188458;23;20009;-74
2022/12/02 06:52:05;;;;;;;48.83;21.08;;;5.40;99.90;;;;;;6162669;23;20017;-74
2022/12/02 06:54:33;;;;;;;54.67;21.67;;;6.60;99.90;;;;;;6147581;23;20013;-74
2022/12/02 06:57:01;;;;;;;48.83;20.88;;;5.30;99.90;;;;;;6185500;23;20017;-74
2022/12/02 06:59:30;;;;;;;47.92;21.23;;;5.30;99.90;;;;;;6162168;23;20036;-74
2022/12/02 07:02:01;;;;;;;56.38;22.83;;;5.20;99.90;;;;;;6162699;23;20013;-74
2022/12/02 07:04:49;;;;;;;52.73;22.27;;;5.60;99.90;;;;;;6162838;23;20017;-74
2022/12/02 07:07:29;;;;;;;59.65;23.05;;;5.20;99.90;;;;;;6197955;23;20013;-74
2022/12/02 07:10:01;;;;;;;58.70;22.58;;;5.20;99.90;;;;;;6186105;23;20024;-74
2022/12/02 07:12:33;;;;;;;55.70;21.42;;;5.20;99.90;;;;;;6197408;23;20016;-74
2022/12/02 07:15:25;;;;;;;57.50;22.95;;;5.20;99.90;;;;;;6197031;23;20009;-74
2022/12/02 07:17:58;;;;;;;48.85;21.92;;;5.30;99.90;;;;;;6197114;23;20020;-74
2022/12/02 07:20:37;;;;;;;45.78;21.63;;;5.60;99.90;;;;;;6198387;23;20326;-74
2022/12/02 07:23:17;;;;;;;55.30;23.23;;;5.30;99.90;;;;;;6185701;23;20025;-75
2022/12/02 07:25:56;;;;;;;53.40;22.20;;;7.10;99.90;;;;;;6161966;23;20021;-77
2022/12/02 07:28:34;;;;;;;46.40;20.85;;;5.80;99.90;;;;;;6197375;23;20306;-77
2022/12/02 07:31:09;;;;;;;;;;;5.40;99.90;;;;;;6161573;23;20422;-77
2022/12/02 07:33:40;;;;;;;47.33;20.35;;;5.40;99.90;;;;;;6187020;23;20217;-77
2022/12/02 07:36:08;;;;;;;41.40;19.25;;;5.40;99.90;;;;;;6196584;23;20013;-77
2022/12/02 07:38:37;;;;;;;44.30;20.50;;;5.40;99.90;;;;;;6186810;23;20013;-77
2022/12/02 07:41:25;;;;;;;44.88;19.30;;;5.40;99.90;;;;;;6187306;23;20366;-77
2022/12/02 07:43:57;;;;;;;44.85;20.27;;;6.00;99.90;;;;;;6196528;23;20020;-77
2022/12/02 07:46:25;;;;;;;46.00;20.17;;;7.50;99.90;;;;;;6137719;23;20445;-77
2022/12/02 07:48:53;;;;;;;44.45;18.33;;;7.10;99.90;;;;;;6188059;23;20009;-77
2022/12/02 07:51:25;;;;;;;44.83;18.13;;;8.20;99.90;;;;;;6195415;23;20020;-77
2022/12/02 07:53:52;;;;;;;44.85;19.27;;;6.60;99.90;;;;;;6187776;23;20020;-77
2022/12/02 07:56:20;;;;;;;43.30;18.08;;;7.60;99.90;;;;;;6164897;23;20028;-79
2022/12/02 07:58:48;;;;;;;41.50;18.42;;;5.60;99.90;;;;;;6191797;23;20016;-79
2022/12/02 08:01:37;;;;;;;42.67;19.52;;;5.60;99.90;;;;;;6168387;23;20025;-78
2022/12/02 08:04:14;;;;;;;42.00;17.95;;;5.70;99.90;;;;;;6187364;23;20016;-78
2022/12/02 08:06:43;;;;;;;41.28;17.95;;;4.90;99.90;;;;;;6177259;23;20418;-78
2022/12/02 08:09:14;;;;;;;40.88;19.02;;;7.80;99.90;;;;;;6166968;23;20422;-78
2022/12/02 08:11:44;;;;;;;38.28;18.40;;;5.70;99.90;;;;;;6225949;23;20020;-78
2022/12/02 08:14:12;;;;;;;40.67;18.40;;;7.60;99.90;;;;;;6217855;23;20009;-78
2022/12/02 08:16:40;;;;;;;41.60;18.60;;;7.20;99.90;;;;;;6190064;23;20019;-77
2022/12/02 08:19:08;;;;;;;40.90;18.40;;;7.70;99.90;;;;;;6166257;23;20024;-77
2022/12/02 08:21:36;;;;;;;42.22;18.58;;;7.90;99.90;;;;;;6190998;23;20051;-77
2022/12/02 08:24:07;;;;;;;38.70;18.17;;;5.80;99.90;;;;;;6141021;23;20020;-77
2022/12/02 08:26:36;;;;;;;42.20;18.88;;;6.80;99.90;;;;;;6201631;23;20024;-78
2022/12/02 08:29:04;;;;;;;42.70;18.27;;;7.60;99.90;;;;;;6167952;23;20016;-78
2022/12/02 08:31:38;;;;;;;37.90;17.83;;;6.50;99.90;;;;;;6189645;23;20017;-78
2022/12/02 08:34:09;;;;;;;41.47;18.02;;;6.00;99.90;;;;;;6227439;23;20016;-78
2022/12/02 08:36:40;;;;;;;41.63;17.30;;;6.80;99.90;;;;;;6226124;23;20020;-78
2022/12/02 08:39:10;;;;;;;42.65;18.15;;;7.80;99.90;;;;;;6177888;23;20017;-77
2022/12/02 08:41:39;;;;;;;45.92;19.45;;;8.10;99.90;;;;;;6191784;23;20027;-77
2022/12/02 08:44:07;;;;;;;41.50;18.65;;;7.20;99.90;;;;;;6190061;23;20035;-78
2022/12/02 08:46:37;;;;;;;46.17;18.25;;;7.70;99.90;;;;;;6201363;23;20028;-77
2022/12/02 08:49:08;;;;;;;46.55;19.42;;;7.90;99.90;;;;;;6191030;23;20329;-77
2022/12/02 08:51:36;;;;;;;40.85;18.48;;;7.30;99.90;;;;;;6226126;23;20016;-76
2022/12/02 08:54:06;;;;;;;49.90;20.27;;;8.20;99.90;;;;;;6166155;23;20434;-78
2022/12/02 08:56:37;;;;;;;43.72;18.88;;;7.80;99.90;;;;;;6190254;23;20421;-77
2022/12/02 08:59:12;;;;;;;41.85;18.45;;;7.80;99.90;;;;;;6227470;23;20019;-78
2022/12/02 09:01:39;;;;;;;50.75;19.98;;;6.10;99.90;;;;;;6217220;23;20020;-78
2022/12/02 09:04:07;;;;;;;45.28;18.30;;;7.70;99.90;;;;;;6190328;23;20013;-77
2022/12/02 09:06:35;;;;;;;48.08;20.48;;;5.30;99.90;;;;;;6191364;23;20459;-77
2022/12/02 09:09:04;;;;;;;51.47;19.60;;;6.30;99.90;;;;;;6166769;23;20017;-78
2022/12/02 09:11:32;;;;;;;50.05;20.08;;;7.90;99.90;;;;;;6189738;23;20008;-77
2022/12/02 09:14:00;;;;;;;;;;;6.10;99.90;;;;;;6191346;23;20017;-77
2022/12/02 09:16:27;;;;;;;44.15;19.25;;;6.10;99.90;;;;;;6197688;23;19939;-78
2022/12/02 09:18:56;;;;;;;52.05;21.33;;;8.40;99.90;;;;;;6190735;23;20453;-77
2022/12/02 09:21:24;;;;;;;44.47;19.73;;;6.40;99.90;;;;;;6217220;23;20024;-78
2022/12/02 09:23:51;;;;;;;47.20;19.20;;;6.80;99.90;;;;;;6188898;23;20496;-77
2022/12/02 09:26:19;;;;;;;48.60;18.83;;;7.00;99.90;;;;;;6219283;23;20017;-77
2022/12/02 09:28:47;;;;;;;52.20;19.50;;;7.10;99.90;;;;;;6219062;23;20019;-77
2022/12/02 09:31:14;;;;;;;51.47;20.17;;;7.70;99.90;;;;;;6191285;23;20016;-76
2022/12/02 09:33:42;;;;;;;53.83;20.50;;;8.60;99.90;;;;;;6193602;23;20028;-76
2022/12/02 09:36:09;;;;;;;54.10;20.80;;;7.40;99.90;;;;;;6167262;23;20027;-76
2022/12/02 09:38:37;;;;;;;49.95;20.00;;;7.30;99.90;;;;;;6219174;23;20012;-77
2022/12/02 09:41:05;;;;;;;52.05;20.02;;;8.90;99.90;;;;;;6193208;23;20384;-78
2022/12/02 09:43:33;;;;;;;47.55;20.20;;;6.40;99.90;;;;;;6166340;23;20020;-78
2022/12/02 09:46:01;;;;;;;;;;;6.00;99.90;;;;;;6193571;23;20016;-76
2022/12/02 09:48:29;;;;;;;;;;;6.80;99.90;;;;;;6219405;23;19924;-77
2022/12/02 09:50:57;;;;;;;;;;;6.50;99.90;;;;;;6192600;23;19923;-77
2022/12/02 09:53:29;;;;;;;45.80;18.42;;;6.50;99.90;;;;;;6219133;23;19922;-77
2022/12/02 09:55:57;;;;;;;50.20;19.88;;;6.70;99.90;;;;;;6219299;23;20017;-78
2022/12/02 09:58:26;;;;;;;52.13;20.02;;;8.90;99.90;;;;;;6168616;23;20009;-78
2022/12/02 10:00:53;;;;;;;49.20;20.20;;;8.00;99.90;;;;;;6193037;23;20009;-77
2022/12/02 10:03:25;;;;;;;46.67;19.63;;;6.90;99.90;;;;;;6166611;23;20013;-77
2022/12/02 10:05:53;;;;;;;47.58;19.88;;;6.70;99.90;;;;;;6192626;23;20027;-78
2022/12/02 10:08:25;;;;;;;47.25;18.73;;;6.80;99.90;;;;;;6167899;23;20023;-77
2022/12/02 10:10:57;;;;;;;46.97;19.05;;;7.20;99.90;;;;;;6190818;23;20028;-78
2022/12/02 10:13:26;;;;;;;47.20;19.10;;;7.90;99.90;;;;;;6229311;23;20422;-77
2022/12/02 10:15:53;;;;;;;;;;;6.90;99.90;;;;;;6203388;23;20012;-76
2022/12/02 10:18:25;;;;;;;45.95;19.52;;;6.80;99.90;;;;;;6191729;23;19919;-76
2022/12/02 10:20:53;;;;;;;47.22;18.75;;;5.00;99.90;;;;;;6228643;23;20009;-77
2022/12/02 10:23:26;;;;;;;45.13;18.98;;;6.80;99.90;;;;;;6191401;23;20009;-77
2022/12/02 10:26:05;;;;;;;41.15;17.48;;;7.00;99.90;;;;;;6202571;23;20012;-77
2022/12/02 10:28:36;;;;;;;44.42;19.83;;;6.90;99.90;;;;;;6228743;23;20020;-77
2022/12/02 10:31:18;;;;;;;44.17;19.25;;;6.90;99.90;;;;;;6227228;23;20012;-76
2022/12/02 10:33:53;;;;;;;44.85;18.77;;;9.30;99.90;;;;;;6168142;23;20016;-76
2022/12/02 10:36:33;;;;;;;45.10;18.60;;;7.00;99.90;;;;;;6166608;23;20013;-76
2022/12/02 10:39:19;;;;;;;36.28;18.25;;;7.00;99.90;;;;;;6177700;23;20013;-77
2022/12/02 10:41:48;;;;;;;48.45;19.92;;;9.90;99.90;;;;;;6202276;23;20438;-76
2022/12/02 10:44:19;;;;;;;47.30;19.42;;;9.40;99.90;;;;;;6191122;23;20020;-77
2022/12/02 10:46:47;;;;;;;43.22;19.92;;;7.80;99.90;;;;;;6167530;23;20028;-77
2022/12/02 10:49:34;;;;;;;47.42;19.55;;;5.20;99.90;;;;;;6167473;23;20016;-77
2022/12/02 10:52:10;;;;;;;46.92;20.33;;;7.10;99.90;;;;;;6167391;23;20023;-78
2022/12/02 10:54:43;;;;;;;43.47;19.60;;;7.10;99.90;;;;;;6225656;23;20015;-77
2022/12/02 10:57:19;;;;;;;48.70;20.48;;;7.10;99.90;;;;;;6166206;23;20016;-77
2022/12/02 10:59:52;;;;;;;44.60;21.13;;;7.40;99.90;;;;;;6203299;23;20013;-76
2022/12/02 11:02:31;;;;;;;46.67;21.27;;;7.30;99.90;;;;;;6167273;23;20025;-76
2022/12/02 11:05:05;;;;;;;;;;;8.50;99.90;;;;;;6226275;23;20421;-77
2022/12/02 11:07:36;;;;;;;43.80;19.88;;;6.30;99.90;;;;;;6202874;23;20392;-77
2022/12/02 11:10:04;;;;;;;44.75;21.15;;;7.60;99.90;;;;;;6190955;23;20012;-77
2022/12/02 11:12:33;;;;;;;;;;;7.40;99.90;;;;;;6167915;23;20065;-77
2022/12/02 11:15:04;;;;;;;52.03;22.02;;;7.50;99.90;;;;;;6167115;23;19916;-78
2022/12/02 11:18:05;;;;;;;48.75;22.05;;;8.40;99.90;;;;;;6190688;23;20309;-77
2022/12/02 11:20:44;;;;;;;44.65;21.35;;;8.20;99.90;;;;;;6132715;23;20439;-77
2022/12/02 11:23:19;;;;;;;45.60;22.17;;;9.80;99.90;;;;;;6190422;23;20283;-76
2022/12/02 11:25:53;;;;;;;45.83;22.55;;;9.40;99.90;;;;;;6143249;23;20023;-76
2022/12/02 11:28:26;;;;;;;49.08;24.08;;;10.20;99.90;;;;;;6166869;23;20021;-76
2022/12/02 11:31:10;;;;;;;42.65;21.35;;;8.30;99.90;;;;;;6226343;23;20020;-77
2022/12/02 11:33:54;;;;;;;47.35;22.23;;;9.40;99.90;;;;;;6227916;23;20012;-77
2022/12/02 11:36:30;;;;;;;46.10;21.58;;;6.20;99.90;;;;;;6226894;23;20017;-77
2022/12/02 11:39:11;;;;;;;42.80;20.98;;;7.50;99.90;;;;;;6167199;23;20020;-78
2022/12/02 11:42:05;;;;;;;43.08;20.38;;;7.60;99.90;;;;;;6217943;23;20017;-77
2022/12/02 11:44:33;;;;;;;39.90;18.83;;;8.30;99.90;;;;;;6112198;23;20039;-76
2022/12/02 11:47:06;;;;;;;37.17;18.38;;;10.40;99.90;;;;;;6166428;23;20016;-77
2022/12/02 11:49:41;;;;;;;36.58;18.77;;;7.60;99.90;;;;;;6142755;23;20024;-77
2022/12/02 11:52:08;;;;;;;36.05;18.42;;;7.60;99.90;;;;;;6167071;23;20039;-78
2022/12/02 11:55:04;;;;;;;39.17;18.52;;;8.10;99.90;;;;;;6217554;23;20016;-78
2022/12/02 11:57:48;;;;;;;42.92;20.17;;;7.70;99.90;;;;;;6190537;23;20017;-78
2022/12/02 12:00:25;;;;;;;36.85;18.80;;;7.60;99.90;;;;;;6227980;23;20023;-77
2022/12/02 12:03:12;;;;;;;41.00;19.90;;;7.70;99.90;;;;;;6200112;23;20019;-77
2022/12/02 12:05:42;;;;;;;39.50;18.73;;;9.30;99.90;;;;;;6192153;23;20453;-77
2022/12/02 12:08:24;;;;;;;36.35;17.98;;;7.90;99.90;;;;;;6218109;23;20024;-78
2022/12/02 12:11:14;;;;;;;39.08;19.55;;;8.50;99.90;;;;;;6175467;23;20024;-77
2022/12/02 12:13:57;;;;;;;35.80;18.20;;;8.00;99.90;;;;;;6191284;23;20027;-77
2022/12/02 12:16:27;;;;;;;39.08;18.92;;;9.70;99.90;;;;;;6190286;23;20322;-78
2022/12/02 12:18:55;;;;;;;36.85;18.92;;;9.20;99.90;;;;;;6191753;23;20012;-77
2022/12/02 12:21:30;;;;;;;33.55;17.85;;;10.00;99.90;;;;;;6168254;23;20039;-77
2022/12/02 12:24:22;;;;;;;33.65;18.27;;;8.30;99.90;;;;;;6189749;23;20021;-78
2022/12/02 12:27:03;;;;;;;37.22;17.65;;;8.40;99.90;;;;;;6191828;23;20012;-77
2022/12/02 12:29:36;;;;;;;32.22;16.88;;;8.40;99.90;;;;;;6200699;23;20013;-78
2022/12/02 12:32:05;;;;;;;34.58;17.33;;;8.60;99.90;;;;;;6166701;23;20429;-78
2022/12/02 12:34:35;;;;;;;33.97;17.05;;;8.60;99.90;;;;;;6167958;23;20012;-78
2022/12/02 12:37:03;;;;;;;37.33;16.55;;;8.60;99.90;;;;;;6189413;23;20013;-77
2022/12/02 12:39:31;;;;;;;34.63;17.02;;;8.00;99.90;;;;;;6165806;23;20020;-77
2022/12/02 12:41:59;;;;;;;29.92;16.83;;;8.50;99.90;;;;;;6191535;23;20012;-77
2022/12/02 12:44:29;;;;;;;32.70;15.73;;;11.10;99.90;;;;;;6165282;23;20020;-76
2022/12/02 12:47:01;;;;;;;30.05;14.57;;;8.40;99.90;;;;;;6201517;23;20012;-77
2022/12/02 12:49:30;;;;;;;31.45;14.90;;;8.40;99.90;;;;;;6164513;23;20031;-73
2022/12/02 12:51:58;;;;;;;29.27;15.40;;;8.30;99.90;;;;;;6141775;23;20028;-77
2022/12/02 12:54:26;;;;;;;32.90;15.85;;;9.60;99.90;;;;;;6190916;23;20028;-76
2022/12/02 12:56:53;;;;;;;;;;;8.40;99.90;;;;;;6190417;23;20008;-77
2022/12/02 12:59:21;;;;;;;29.13;14.73;;;10.20;99.90;;;;;;6168017;23;19922;-76
2022/12/02 13:01:49;;;;;;;29.13;15.90;;;9.60;99.90;;;;;;6219212;23;20046;-77
2022/12/02 13:04:16;;;;;;;30.40;15.45;;;9.50;99.90;;;;;;6191350;23;20020;-77
2022/12/02 13:06:45;;;;;;;32.63;15.52;;;8.40;99.90;;;;;;6178128;23;20013;-77